Time;durP1;ratioP1;P1;durP2;ratioP2;P2;SDS_P1;SDS_P2;PMS_P1;PMS_P2;Temp;Humidity;BMP_temperature;BMP_pressure;BME280_temperature;BME280_humidity;BME280_pressure;Samples;Min_cycle;Max_cycle;Signal;HPM_P1;HPM_P2
2023/05/09 00:01:15;;;;;;;23.73;21.43;;;;;;;;;;5019050;28;20443;-77
2023/05/09 00:03:47;;;;;;;24.33;21.23;;;;;;;;;;5018245;28;20447;-76
2023/05/09 00:06:27;;;;;;;24.90;22.40;;;;;;;;;;5018591;28;20462;-78
2023/05/09 00:08:58;;;;;;;24.40;22.10;;;;;;;;;;5018469;28;20527;-78
2023/05/09 00:11:29;;;;;;;23.93;21.43;;;;;;;;;;5019058;28;20485;-77
2023/05/09 00:14:11;;;;;;;24.13;21.60;;;;;;;;;;5018441;28;20565;-77
2023/05/09 00:16:44;;;;;;;23.97;21.67;;;;;;;;;;5021454;28;20455;-77
2023/05/09 00:19:20;;;;;;;25.67;23.10;;;;;;;;;;5021807;28;20471;-77
2023/05/09 00:21:48;;;;;;;24.97;22.63;;;;;;;;;;5021712;28;20482;-77
2023/05/09 00:24:16;;;;;;;25.87;23.20;;;;;;;;;;5020478;28;20454;-78
2023/05/09 00:26:50;;;;;;;25.47;22.87;;;;;;;;;;5020585;28;20450;-77
2023/05/09 00:29:24;;;;;;;25.33;22.83;;;;;;;;;;5019263;28;20482;-78
2023/05/09 00:32:01;;;;;;;27.40;24.53;;;;;;;;;;5019481;28;20451;-78
2023/05/09 00:34:33;;;;;;;26.97;24.27;;;;;;;;;;5019322;28;20527;-78
2023/05/09 00:37:32;;;;;;;26.03;23.50;;;;;;;;;;5018923;28;20506;-77
2023/05/09 00:40:17;;;;;;;25.87;23.30;;;;;;;;;;5015883;28;20491;-77
2023/05/09 00:42:54;;;;;;;24.53;22.07;;;;;;;;;;5018716;28;20451;-77
2023/05/09 00:45:28;;;;;;;26.67;23.90;;;;;;;;;;5017919;28;20447;-78
2023/05/09 00:48:01;;;;;;;26.53;23.93;;;;;;;;;;5018587;28;20452;-77
2023/05/09 00:50:29;;;;;;;26.83;24.13;;;;;;;;;;5017809;28;20649;-76
2023/05/09 00:53:02;;;;;;;25.47;23.10;;;;;;;;;;5017048;28;20582;-79
2023/05/09 00:55:36;;;;;;;26.37;23.60;;;;;;;;;;5018291;28;20482;-78
2023/05/09 00:58:07;;;;;;;27.47;24.67;;;;;;;;;;5020223;28;20451;-78
2023/05/09 01:00:38;;;;;;;27.30;24.60;;;;;;;;;;5020494;28;20562;-76
2023/05/09 01:03:12;;;;;;;28.37;25.47;;;;;;;;;;5021625;28;20658;-78
2023/05/09 01:05:47;;;;;;;29.10;26.23;;;;;;;;;;5020254;28;20451;-77
2023/05/09 01:08:24;;;;;;;28.27;25.37;;;;;;;;;;5020352;28;20893;-77
2023/05/09 01:10:57;;;;;;;30.37;27.17;;;;;;;;;;5020412;28;20474;-77
2023/05/09 01:13:29;;;;;;;29.77;26.63;;;;;;;;;;5020288;28;20475;-77
2023/05/09 01:16:07;;;;;;;28.17;25.17;;;;;;;;;;5020343;28;20456;-78
2023/05/09 01:18:44;;;;;;;28.47;25.57;;;;;;;;;;5020458;28;20490;-77
2023/05/09 01:21:16;;;;;;;28.73;25.50;;;;;;;;;;5019182;28;20814;-77
2023/05/09 01:24:11;;;;;;;30.00;26.07;;;;;;;;;;5020280;28;20670;-77
2023/05/09 01:26:48;;;;;;;32.70;26.73;;;;;;;;;;4974460;28;20448;-78
2023/05/09 01:29:46;;;;;;;29.03;26.03;;;;;;;;;;5018809;28;20537;-77
2023/05/09 01:32:18;;;;;;;28.27;25.47;;;;;;;;;;5016353;28;20447;-77
2023/05/09 01:34:56;;;;;;;29.37;26.37;;;;;;;;;;5014632;28;20895;-78
2023/05/09 01:37:29;;;;;;;30.67;27.47;;;;;;;;;;5014188;28;20507;-77
2023/05/09 01:40:00;;;;;;;27.90;25.10;;;;;;;;;;5015665;28;20471;-78
2023/05/09 01:42:29;;;;;;;29.40;26.47;;;;;;;;;;5026377;28;20448;-77
2023/05/09 01:45:05;;;;;;;29.53;26.40;;;;;;;;;;5031114;28;20538;-78
2023/05/09 01:47:32;;;;;;;29.07;26.07;;;;;;;;;;5029485;28;20451;-77
2023/05/09 01:50:02;;;;;;;28.27;25.23;;;;;;;;;;5030106;28;20480;-76
2023/05/09 01:52:32;;;;;;;29.73;26.60;;;;;;;;;;5029898;28;20455;-78
2023/05/09 01:55:02;;;;;;;30.23;26.93;;;;;;;;;;5030499;28;20416;-78
2023/05/09 01:57:36;;;;;;;27.70;24.87;;;;;;;;;;5029832;28;20957;-79
2023/05/09 02:00:06;;;;;;;29.07;26.07;;;;;;;;;;5029294;28;20497;-79
2023/05/09 02:02:36;;;;;;;28.63;25.77;;;;;;;;;;5030005;28;20448;-78
2023/05/09 02:05:15;;;;;;;30.70;27.60;;;;;;;;;;5014147;28;20452;-77
2023/05/09 02:07:56;;;;;;;29.43;26.33;;;;;;;;;;5014749;28;20439;-77
2023/05/09 02:10:52;;;;;;;29.30;26.40;;;;;;;;;;5018829;28;20945;-78
2023/05/09 02:13:37;;;;;;;30.13;27.00;;;;;;;;;;5022974;28;20475;-79
2023/05/09 02:16:14;;;;;;;29.07;25.93;;;;;;;;;;5023300;28;20475;-77
2023/05/09 02:18:47;;;;;;;28.40;25.60;;;;;;;;;;5023883;28;21014;-77
2023/05/09 02:21:16;;;;;;;30.03;27.03;;;;;;;;;;5023666;28;20546;-79
2023/05/09 02:23:45;;;;;;;30.13;26.97;;;;;;;;;;5021029;28;20551;-81
2023/05/09 02:26:14;;;;;;;29.77;26.67;;;;;;;;;;5023647;28;20506;-78
2023/05/09 02:28:45;;;;;;;30.60;27.30;;;;;;;;;;5024083;28;20499;-77
2023/05/09 02:31:22;;;;;;;30.80;27.70;;;;;;;;;;5022623;28;20452;-77
2023/05/09 02:33:51;;;;;;;29.60;26.67;;;;;;;;;;5022131;28;20482;-76
2023/05/09 02:36:22;;;;;;;30.83;27.50;;;;;;;;;;5023785;28;20487;-79
2023/05/09 02:38:50;;;;;;;31.53;28.23;;;;;;;;;;5023873;28;20471;-77
2023/05/09 02:41:18;;;;;;;31.23;28.10;;;;;;;;;;5021234;28;20487;-77
2023/05/09 02:43:46;;;;;;;31.80;28.47;;;;;;;;;;5028042;28;20446;-77
2023/05/09 02:46:16;;;;;;;32.30;29.03;;;;;;;;;;5031957;28;20447;-80
2023/05/09 02:48:44;;;;;;;31.77;28.37;;;;;;;;;;5031904;28;20531;-77
2023/05/09 02:51:14;;;;;;;31.30;28.20;;;;;;;;;;5028806;28;20447;-79
2023/05/09 02:53:42;;;;;;;30.97;27.73;;;;;;;;;;5028731;28;20498;-78
2023/05/09 02:56:12;;;;;;;31.07;27.80;;;;;;;;;;5029494;28;20452;-78
2023/05/09 02:58:40;;;;;;;31.23;28.07;;;;;;;;;;5024906;28;20494;-78
2023/05/09 03:01:12;;;;;;;31.43;28.33;;;;;;;;;;5024224;28;20448;-77
2023/05/09 03:03:44;;;;;;;33.27;29.83;;;;;;;;;;5019930;28;20475;-79
2023/05/09 03:06:24;;;;;;;40.90;36.80;;;;;;;;;;5022631;28;20455;-77
2023/05/09 03:09:01;;;;;;;30.67;27.57;;;;;;;;;;5022260;28;20483;-77
2023/05/09 03:11:29;;;;;;;33.20;29.57;;;;;;;;;;5021426;28;20451;-78
2023/05/09 03:14:00;;;;;;;31.77;28.50;;;;;;;;;;5021648;28;20483;-79
2023/05/09 03:16:31;;;;;;;32.00;28.50;;;;;;;;;;5023107;28;20453;-79
2023/05/09 03:19:06;;;;;;;32.33;29.13;;;;;;;;;;5025984;28;20471;-79
2023/05/09 03:21:35;;;;;;;33.03;29.53;;;;;;;;;;5026409;28;20499;-80
2023/05/09 03:24:11;;;;;;;31.10;27.90;;;;;;;;;;5028900;28;20486;-78
2023/05/09 03:26:41;;;;;;;31.60;28.40;;;;;;;;;;5022458;28;20975;-77
2023/05/09 03:29:12;;;;;;;32.40;28.87;;;;;;;;;;5024480;28;20467;-80
2023/05/09 03:31:40;;;;;;;31.77;28.47;;;;;;;;;;5025856;28;20450;-78
2023/05/09 03:34:13;;;;;;;34.33;29.97;;;;;;;;;;5025046;28;20486;-80
2023/05/09 03:36:44;;;;;;;31.80;28.40;;;;;;;;;;5029577;28;20485;-78
2023/05/09 03:39:15;;;;;;;31.90;28.60;;;;;;;;;;5024671;28;20483;-77
2023/05/09 03:41:45;;;;;;;32.00;28.60;;;;;;;;;;5022723;28;20434;-77
2023/05/09 03:44:14;;;;;;;31.93;28.77;;;;;;;;;;5019591;28;20451;-78
2023/05/09 03:46:42;;;;;;;30.47;27.27;;;;;;;;;;5015723;28;20455;-78
2023/05/09 03:49:11;;;;;;;34.43;30.60;;;;;;;;;;5015150;28;20467;-77
2023/05/09 03:51:39;;;;;;;32.07;28.67;;;;;;;;;;5016367;28;20446;-77
2023/05/09 03:54:11;;;;;;;32.73;29.33;;;;;;;;;;5015469;28;20510;-78
2023/05/09 03:56:41;;;;;;;33.60;29.30;;;;;;;;;;5014609;28;20542;-79
2023/05/09 03:59:15;;;;;;;32.83;29.27;;;;;;;;;;5015577;28;20476;-78
2023/05/09 04:01:44;;;;;;;31.40;28.03;;;;;;;;;;5016227;28;20448;-77
2023/05/09 04:04:18;;;;;;;30.67;27.47;;;;;;;;;;5024915;28;20431;-80
2023/05/09 04:06:53;;;;;;;32.43;28.97;;;;;;;;;;5030246;28;20443;-79
2023/05/09 04:09:31;;;;;;;33.00;29.73;;;;;;;;;;5027446;28;20471;-81
2023/05/09 04:12:08;;;;;;;33.93;29.93;;;;;;;;;;5028772;28;20523;-80
2023/05/09 04:14:39;;;;;;;33.17;29.80;;;;;;;;;;5028491;28;21038;-77
2023/05/09 04:17:07;;;;;;;31.90;28.50;;;;;;;;;;5023934;28;20961;-80
2023/05/09 04:19:39;;;;;;;36.57;31.80;;;;;;;;;;5023302;28;20847;-78
2023/05/09 04:22:08;;;;;;;35.07;31.37;;;;;;;;;;5026406;28;20501;-77
2023/05/09 04:24:36;;;;;;;32.70;29.37;;;;;;;;;;5026553;28;20474;-78
2023/05/09 04:27:05;;;;;;;32.70;29.17;;;;;;;;;;5027541;28;20471;-77
2023/05/09 04:29:35;;;;;;;33.70;30.30;;;;;;;;;;5024435;28;20883;-78
2023/05/09 04:32:11;;;;;;;33.57;29.47;;;;;;;;;;5023773;28;20914;-79
2023/05/09 04:34:43;;;;;;;35.60;31.90;;;;;;;;;;5022509;28;20518;-77
2023/05/09 04:37:12;;;;;;;33.30;29.50;;;;;;;;;;5019402;28;20447;-80
2023/05/09 04:39:44;;;;;;;35.90;31.47;;;;;;;;;;5020460;28;20514;-78
2023/05/09 04:42:13;;;;;;;36.50;32.70;;;;;;;;;;5020124;28;20478;-78
2023/05/09 04:44:50;;;;;;;36.30;31.37;;;;;;;;;;5023546;28;20829;-78
2023/05/09 04:47:21;;;;;;;33.23;29.83;;;;;;;;;;5021083;28;20455;-77
2023/05/09 04:49:50;;;;;;;33.63;30.13;;;;;;;;;;5021229;28;20903;-78
2023/05/09 04:52:18;;;;;;;32.93;28.90;;;;;;;;;;5021320;28;20594;-78
2023/05/09 04:54:46;;;;;;;32.47;28.97;;;;;;;;;;5023761;28;20478;-76
2023/05/09 04:57:14;;;;;;;33.67;30.07;;;;;;;;;;5018266;28;20455;-77
2023/05/09 04:59:47;;;;;;;31.50;28.20;;;;;;;;;;5020067;28;20491;-78
2023/05/09 05:02:17;;;;;;;38.87;32.07;;;;;;;;;;5026580;28;20459;-76
2023/05/09 05:04:44;;;;;;;34.40;30.63;;;;;;;;;;5028401;28;20467;-77
2023/05/09 05:07:13;;;;;;;35.27;30.93;;;;;;;;;;5030100;28;20440;-79
2023/05/09 05:09:41;;;;;;;32.60;29.20;;;;;;;;;;5030895;28;20498;-77
2023/05/09 05:12:18;;;;;;;33.37;29.73;;;;;;;;;;5031035;28;20597;-80
2023/05/09 05:14:45;;;;;;;37.87;30.80;;;;;;;;;;5031255;28;20485;-78
2023/05/09 05:17:13;;;;;;;33.90;29.80;;;;;;;;;;5027609;28;20448;-77
2023/05/09 05:19:40;;;;;;;36.33;29.53;;;;;;;;;;5026731;28;20451;-78
2023/05/09 05:22:07;;;;;;;33.40;29.70;;;;;;;;;;5025236;28;20459;-78
2023/05/09 05:24:39;;;;;;;32.93;29.43;;;;;;;;;;5026219;28;20465;-78
2023/05/09 05:27:06;;;;;;;32.37;28.73;;;;;;;;;;5026781;28;20625;-77
2023/05/09 05:29:37;;;;;;;29.17;26.17;;;;;;;;;;5025353;28;20506;-78
2023/05/09 05:32:04;;;;;;;30.67;27.53;;;;;;;;;;5025564;28;20471;-78
2023/05/09 05:34:34;;;;;;;32.33;28.50;;;;;;;;;;5024069;28;20478;-78
2023/05/09 05:37:01;;;;;;;30.97;27.80;;;;;;;;;;5023294;28;20467;-79
2023/05/09 05:39:28;;;;;;;29.83;26.90;;;;;;;;;;5023957;28;20487;-78
2023/05/09 05:41:57;;;;;;;30.50;27.30;;;;;;;;;;5024986;28;20534;-78
2023/05/09 05:44:26;;;;;;;31.37;27.03;;;;;;;;;;5020097;28;20478;-79
2023/05/09 05:46:53;;;;;;;29.60;26.60;;;;;;;;;;5022029;28;20479;-77
2023/05/09 05:49:24;;;;;;;30.20;27.10;;;;;;;;;;5020912;28;20478;-77
2023/05/09 05:51:52;;;;;;;31.87;27.03;;;;;;;;;;5020246;28;20455;-78
2023/05/09 05:54:30;;;;;;;31.40;28.20;;;;;;;;;;5019258;28;20526;-77
2023/05/09 05:57:02;;;;;;;32.03;27.13;;;;;;;;;;5018616;28;20840;-79
2023/05/09 05:59:29;;;;;;;30.03;26.80;;;;;;;;;;5019204;28;20475;-78
2023/05/09 06:02:01;;;;;;;29.63;26.30;;;;;;;;;;5019574;28;20459;-75
2023/05/09 06:04:36;;;;;;;30.13;27.00;;;;;;;;;;5024080;28;20444;-77
2023/05/09 06:07:13;;;;;;;28.80;25.90;;;;;;;;;;5024959;28;20451;-77
2023/05/09 06:09:52;;;;;;;;;;;;;;;;;;;;;
2023/05/09 06:12:25;;;;;;;28.77;25.70;;;;;;;;;;5021517;28;20436;-77
2023/05/09 06:14:54;;;;;;;29.10;26.17;;;;;;;;;;5021569;28;20479;-77
2023/05/09 06:17:22;;;;;;;27.47;24.70;;;;;;;;;;5018029;28;20529;-76
2023/05/09 06:19:53;;;;;;;27.97;25.10;;;;;;;;;;5023177;28;20529;-78
2023/05/09 06:22:21;;;;;;;27.67;24.97;;;;;;;;;;5027380;28;20447;-78
2023/05/09 06:24:49;;;;;;;29.73;26.70;;;;;;;;;;5024861;28;20528;-77
2023/05/09 06:27:17;;;;;;;26.63;24.03;;;;;;;;;;5022871;28;20546;-77
2023/05/09 06:29:46;;;;;;;26.33;23.60;;;;;;;;;;5022953;28;20895;-77
2023/05/09 06:32:17;;;;;;;27.00;24.40;;;;;;;;;;5021201;28;20451;-78
2023/05/09 06:34:45;;;;;;;28.70;25.70;;;;;;;;;;5019850;28;20538;-77
2023/05/09 06:37:15;;;;;;;28.30;25.43;;;;;;;;;;5016399;28;20822;-77
2023/05/09 06:39:46;;;;;;;25.67;23.17;;;;;;;;;;5014701;28;20479;-78
2023/05/09 06:42:14;;;;;;;26.63;23.83;;;;;;;;;;5015327;28;20455;-77
2023/05/09 06:44:46;;;;;;;27.53;24.70;;;;;;;;;;5015867;28;20462;-78
2023/05/09 06:50:10;;;;;;;26.53;24.03;;;;;;;;;;5005588;28;20451;-79
2023/05/09 06:52:49;;;;;;;25.23;22.67;;;;;;;;;;5012597;28;20447;-78
2023/05/09 06:55:27;;;;;;;24.30;21.90;;;;;;;;;;5012833;28;20566;-77
2023/05/09 06:57:55;;;;;;;25.70;23.20;;;;;;;;;;5012182;28;20963;-78
2023/05/09 07:00:27;;;;;;;24.20;21.83;;;;;;;;;;5012228;28;20861;-78
2023/05/09 07:02:56;;;;;;;24.30;21.90;;;;;;;;;;5013011;28;20447;-79
2023/05/09 07:05:24;;;;;;;23.80;21.43;;;;;;;;;;5014735;28;20448;-80
2023/05/09 07:07:56;;;;;;;22.80;20.70;;;;;;;;;;5014374;28;20478;-78
2023/05/09 07:10:29;;;;;;;24.70;22.17;;;;;;;;;;5014332;28;20487;-77
2023/05/09 07:13:02;;;;;;;23.50;21.20;;;;;;;;;;5014538;28;20459;-78
2023/05/09 07:15:37;;;;;;;24.77;22.43;;;;;;;;;;5014252;28;20475;-76
2023/05/09 07:18:07;;;;;;;26.60;23.90;;;;;;;;;;5013920;28;20458;-77
2023/05/09 07:20:39;;;;;;;24.20;22.00;;;;;;;;;;5013815;28;20490;-79
2023/05/09 07:23:08;;;;;;;25.23;21.70;;;;;;;;;;5013944;28;20498;-77
2023/05/09 07:25:39;;;;;;;23.67;21.37;;;;;;;;;;5013729;28;20435;-78
2023/05/09 07:28:06;;;;;;;23.93;21.40;;;;;;;;;;5013863;28;20479;-76
2023/05/09 07:30:48;;;;;;;24.13;21.67;;;;;;;;;;5014467;28;20543;-78
2023/05/09 07:33:21;;;;;;;24.23;21.80;;;;;;;;;;5024699;28;20446;-76
2023/05/09 07:35:55;;;;;;;23.20;20.90;;;;;;;;;;5024207;28;20490;-77
2023/05/09 07:38:29;;;;;;;22.13;19.97;;;;;;;;;;5026041;28;20460;-77
2023/05/09 07:41:01;;;;;;;21.20;19.00;;;;;;;;;;5027659;28;20462;-78
2023/05/09 07:43:36;;;;;;;20.73;18.53;;;;;;;;;;5028670;28;20455;-76
2023/05/09 07:46:21;;;;;;;19.57;17.53;;;;;;;;;;5026458;28;20945;-77
2023/05/09 07:48:58;;;;;;;19.20;17.40;;;;;;;;;;5018838;28;20490;-79
2023/05/09 07:51:33;;;;;;;18.73;17.03;;;;;;;;;;5018789;28;20428;-78
2023/05/09 07:54:18;;;;;;;18.47;16.60;;;;;;;;;;5018667;28;20451;-77
2023/05/09 07:59:31;;;;;;;17.47;15.87;;;;;;;;;;5018456;28;20582;-77
2023/05/09 08:05:23;;;;;;;17.73;16.13;;;;;;;;;;5018108;28;20443;-77
2023/05/09 08:07:58;;;;;;;19.63;17.83;;;;;;;;;;5017693;28;20459;-78
2023/05/09 08:10:34;;;;;;;15.57;14.27;;;;;;;;;;5018218;28;20899;-80
2023/05/09 08:13:08;;;;;;;15.83;14.20;;;;;;;;;;5017535;28;20796;-79
2023/05/09 08:15:42;;;;;;;16.20;14.60;;;;;;;;;;5017653;28;20482;-80
2023/05/09 08:18:13;;;;;;;17.63;15.83;;;;;;;;;;5016556;28;20879;-77
2023/05/09 08:20:46;;;;;;;19.13;17.07;;;;;;;;;;5016911;28;20505;-79
2023/05/09 08:23:18;;;;;;;16.70;15.10;;;;;;;;;;5016674;28;20558;-77
2023/05/09 08:26:09;;;;;;;19.07;16.40;;;;;;;;;;5017279;28;20794;-78
2023/05/09 08:28:39;;;;;;;18.13;16.33;;;;;;;;;;5014718;28;20490;-77
2023/05/09 08:31:14;;;;;;;15.93;14.43;;;;;;;;;;5016479;28;20450;-78
2023/05/09 08:36:31;;;;;;;15.37;13.97;;;;;;;;;;5006695;28;20574;-78
2023/05/09 08:39:01;;;;;;;17.80;16.23;;;;;;;;;;5019632;28;20502;-78
2023/05/09 08:41:40;;;;;;;17.97;16.27;;;;;;;;;;5025929;28;20500;-79
2023/05/09 08:44:16;;;;;;;18.40;16.70;;;;;;;;;;5026423;28;20949;-77
2023/05/09 08:46:52;;;;;;;18.43;16.80;;;;;;;;;;5024523;28;20451;-79
2023/05/09 08:49:25;;;;;;;19.07;17.37;;;;;;;;;;5024456;28;20471;-78
2023/05/09 08:54:53;;;;;;;18.50;16.70;;;;;;;;;;5017687;28;20550;-77
2023/05/09 08:57:27;;;;;;;17.67;15.97;;;;;;;;;;5016230;28;20448;-77
2023/05/09 09:00:03;;;;;;;18.07;16.47;;;;;;;;;;5018756;28;20475;-77
2023/05/09 09:02:36;;;;;;;19.07;17.17;;;;;;;;;;5020890;28;20465;-77
2023/05/09 09:05:09;;;;;;;17.37;15.67;;;;;;;;;;5022257;28;20446;-79
2023/05/09 09:07:41;;;;;;;18.30;16.70;;;;;;;;;;5020400;28;20514;-77
2023/05/09 09:10:12;;;;;;;16.70;15.20;;;;;;;;;;5015963;28;20487;-79
2023/05/09 09:12:47;;;;;;;17.93;16.43;;;;;;;;;;5014444;28;20757;-77
2023/05/09 09:15:24;;;;;;;18.00;16.30;;;;;;;;;;5014089;28;20487;-78
2023/05/09 09:17:52;;;;;;;17.83;16.13;;;;;;;;;;5013969;28;20884;-79
2023/05/09 09:20:25;;;;;;;18.30;16.57;;;;;;;;;;5015031;28;20871;-79
2023/05/09 09:23:00;;;;;;;16.60;15.20;;;;;;;;;;5013090;28;20839;-78
2023/05/09 09:25:29;;;;;;;17.60;15.90;;;;;;;;;;5018013;28;20940;-76
2023/05/09 09:28:11;;;;;;;17.63;15.83;;;;;;;;;;5018142;28;20974;-79
2023/05/09 09:30:44;;;;;;;15.57;14.27;;;;;;;;;;5009610;28;20451;-78
2023/05/09 09:33:29;;;;;;;15.90;14.47;;;;;;;;;;5018809;28;20502;-78
2023/05/09 09:35:58;;;;;;;15.80;14.40;;;;;;;;;;5016866;28;20542;-77
2023/05/09 09:38:29;;;;;;;15.70;14.20;;;;;;;;;;5017008;28;20961;-79
2023/05/09 09:40:58;;;;;;;15.37;13.77;;;;;;;;;;5017906;28;20436;-78
2023/05/09 09:43:32;;;;;;;13.50;12.40;;;;;;;;;;5016543;28;21004;-79
2023/05/09 09:46:06;;;;;;;15.70;14.23;;;;;;;;;;5019002;28;20930;-80
2023/05/09 09:48:39;;;;;;;14.80;13.60;;;;;;;;;;5017522;28;20467;-77
2023/05/09 09:51:17;;;;;;;17.73;14.27;;;;;;;;;;5017124;28;20463;-77
2023/05/09 09:53:52;;;;;;;13.93;12.70;;;;;;;;;;5015627;28;20451;-77
2023/05/09 09:56:23;;;;;;;13.40;12.40;;;;;;;;;;5014304;28;20466;-78
2023/05/09 09:58:55;;;;;;;12.60;11.43;;;;;;;;;;5014528;28;20474;-78
2023/05/09 10:01:23;;;;;;;14.17;12.87;;;;;;;;;;5015786;28;20483;-78
2023/05/09 10:03:53;;;;;;;11.50;10.50;;;;;;;;;;5017416;28;20963;-77
2023/05/09 10:06:22;;;;;;;10.30;9.50;;;;;;;;;;5020310;28;20471;-79
2023/05/09 10:08:53;;;;;;;11.17;10.30;;;;;;;;;;5022860;28;20487;-77
2023/05/09 10:11:27;;;;;;;12.40;11.40;;;;;;;;;;5024901;28;20459;-76
2023/05/09 10:13:58;;;;;;;13.10;12.00;;;;;;;;;;5023866;28;20443;-80
2023/05/09 10:16:28;;;;;;;11.60;10.70;;;;;;;;;;5023701;28;20529;-77
2023/05/09 10:18:56;;;;;;;9.63;8.87;;;;;;;;;;5023416;28;20544;-77
2023/05/09 10:21:28;;;;;;;12.20;11.10;;;;;;;;;;5023058;28;20941;-80
2023/05/09 10:23:58;;;;;;;12.10;10.20;;;;;;;;;;5020848;28;20451;-78
2023/05/09 10:26:33;;;;;;;12.67;11.63;;;;;;;;;;5017306;28;20456;-78
2023/05/09 10:29:02;;;;;;;11.70;10.77;;;;;;;;;;5019224;28;20474;-77
2023/05/09 10:31:32;;;;;;;11.73;10.83;;;;;;;;;;5018409;28;20452;-76
2023/05/09 10:36:59;;;;;;;13.27;12.10;;;;;;;;;;5022076;28;20483;-77
2023/05/09 10:39:31;;;;;;;10.40;9.60;;;;;;;;;;5022157;28;20462;-77
2023/05/09 10:42:10;;;;;;;10.80;10.00;;;;;;;;;;5021994;28;20455;-77
2023/05/09 10:44:42;;;;;;;13.43;12.13;;;;;;;;;;5023318;28;20458;-78
2023/05/09 10:47:12;;;;;;;11.90;10.80;;;;;;;;;;5022454;28;20530;-79
2023/05/09 10:49:40;;;;;;;12.23;11.33;;;;;;;;;;5022328;28;20475;-77
2023/05/09 10:52:08;;;;;;;13.30;12.10;;;;;;;;;;5021415;28;20455;-77
2023/05/09 10:54:42;;;;;;;13.03;11.90;;;;;;;;;;5016134;28;20439;-77
2023/05/09 10:57:11;;;;;;;15.87;14.57;;;;;;;;;;5016327;28;20493;-76
2023/05/09 10:59:39;;;;;;;14.40;13.10;;;;;;;;;;5017760;28;20463;-77
2023/05/09 11:02:07;;;;;;;12.33;11.33;;;;;;;;;;5020189;28;20466;-78
2023/05/09 11:04:35;;;;;;;10.97;10.07;;;;;;;;;;5021122;28;20933;-78
2023/05/09 11:07:04;;;;;;;12.53;11.43;;;;;;;;;;5019806;28;20451;-78
2023/05/09 11:09:34;;;;;;;11.67;10.67;;;;;;;;;;5017908;28;20479;-76
2023/05/09 11:12:09;;;;;;;10.00;9.17;;;;;;;;;;5017759;28;20470;-78
2023/05/09 11:14:41;;;;;;;10.40;9.50;;;;;;;;;;5016885;28;20500;-77
2023/05/09 11:17:10;;;;;;;12.30;11.10;;;;;;;;;;5015628;28;20513;-77
2023/05/09 11:19:40;;;;;;;12.73;11.63;;;;;;;;;;5015440;28;20475;-78
2023/05/09 11:22:21;;;;;;;11.87;10.87;;;;;;;;;;5018149;28;20486;-77
2023/05/09 11:24:49;;;;;;;11.70;10.63;;;;;;;;;;5018291;28;20521;-80
2023/05/09 11:27:21;;;;;;;13.10;12.00;;;;;;;;;;5017635;28;20427;-79
2023/05/09 11:29:53;;;;;;;10.93;10.03;;;;;;;;;;5017188;28;20514;-77
2023/05/09 11:32:39;;;;;;;8.60;7.90;;;;;;;;;;5018681;28;20451;-79
2023/05/09 11:35:29;;;;;;;8.07;7.37;;;;;;;;;;5020133;28;20451;-79
2023/05/09 11:38:01;;;;;;;7.70;6.47;;;;;;;;;;5017751;28;20452;-77
2023/05/09 11:40:30;;;;;;;7.87;7.20;;;;;;;;;;5015378;28;20466;-79
2023/05/09 11:43:12;;;;;;;8.27;7.57;;;;;;;;;;5017141;28;20462;-77
2023/05/09 11:45:40;;;;;;;7.90;7.20;;;;;;;;;;5014901;28;20478;-77
2023/05/09 11:48:09;;;;;;;7.60;6.90;;;;;;;;;;5014910;28;20502;-79
2023/05/09 11:50:44;;;;;;;6.00;5.20;;;;;;;;;;5017126;28;20482;-77
2023/05/09 11:53:12;;;;;;;6.17;5.67;;;;;;;;;;5016902;28;20454;-77
2023/05/09 11:55:41;;;;;;;5.60;5.20;;;;;;;;;;5018311;28;20482;-79
2023/05/09 11:58:11;;;;;;;6.33;5.93;;;;;;;;;;5017878;28;20478;-78
2023/05/09 12:00:44;;;;;;;5.93;5.53;;;;;;;;;;5017223;28;20469;-77
2023/05/09 12:03:12;;;;;;;5.07;4.67;;;;;;;;;;5017498;28;20451;-76
2023/05/09 12:05:41;;;;;;;5.00;4.60;;;;;;;;;;5017319;28;20490;-76
2023/05/09 12:08:09;;;;;;;3.90;3.70;;;;;;;;;;5018009;28;20510;-76
2023/05/09 12:10:39;;;;;;;4.40;4.10;;;;;;;;;;5017363;28;20461;-77
2023/05/09 12:13:07;;;;;;;4.20;3.90;;;;;;;;;;5016905;28;20451;-80
2023/05/09 12:15:39;;;;;;;4.20;3.90;;;;;;;;;;5016509;28;20436;-78
2023/05/09 12:18:07;;;;;;;3.50;3.20;;;;;;;;;;5017277;28;20467;-78
2023/05/09 12:20:42;;;;;;;4.67;4.37;;;;;;;;;;5017136;28;20549;-76
2023/05/09 12:23:11;;;;;;;4.47;4.03;;;;;;;;;;5015596;28;20466;-78
2023/05/09 12:25:39;;;;;;;4.10;3.90;;;;;;;;;;5018787;28;20615;-78
2023/05/09 12:28:07;;;;;;;4.67;4.37;;;;;;;;;;5020412;28;20503;-78
2023/05/09 12:30:35;;;;;;;6.07;5.57;;;;;;;;;;5018678;28;20454;-77
2023/05/09 12:33:05;;;;;;;5.20;4.80;;;;;;;;;;5016873;28;20459;-77
2023/05/09 12:35:34;;;;;;;6.20;5.67;;;;;;;;;;5016650;28;20474;-75
2023/05/09 12:38:02;;;;;;;5.80;5.30;;;;;;;;;;5019383;28;20455;-77
2023/05/09 12:40:30;;;;;;;5.57;5.07;;;;;;;;;;5019024;28;20455;-76
2023/05/09 12:43:09;;;;;;;3.67;3.37;;;;;;;;;;5019101;28;20459;-78
2023/05/09 12:45:41;;;;;;;3.00;2.80;;;;;;;;;;5019604;28;20453;-78
2023/05/09 12:48:13;;;;;;;3.60;3.40;;;;;;;;;;5020545;28;20499;-77
2023/05/09 12:50:42;;;;;;;4.80;4.50;;;;;;;;;;5021023;28;20474;-78
2023/05/09 12:53:11;;;;;;;4.47;4.17;;;;;;;;;;5016702;28;20821;-79
2023/05/09 12:55:43;;;;;;;4.63;4.20;;;;;;;;;;5018306;28;20933;-79
2023/05/09 12:58:15;;;;;;;4.33;4.03;;;;;;;;;;5018029;28;21003;-78
2023/05/09 13:00:47;;;;;;;3.80;3.50;;;;;;;;;;5016173;28;20502;-79
2023/05/09 13:03:26;;;;;;;2.70;2.50;;;;;;;;;;5017829;28;20494;-79
2023/05/09 13:06:02;;;;;;;3.70;3.50;;;;;;;;;;5017753;28;20456;-79
2023/05/09 13:08:31;;;;;;;3.57;3.27;;;;;;;;;;5019041;28;20475;-77
2023/05/09 13:11:04;;;;;;;4.87;3.50;;;;;;;;;;5018053;28;20459;-78
2023/05/09 13:13:34;;;;;;;3.13;2.93;;;;;;;;;;5017392;28;20482;-78
2023/05/09 13:16:06;;;;;;;3.10;2.90;;;;;;;;;;5021292;28;20519;-76
2023/05/09 13:18:38;;;;;;;3.10;2.90;;;;;;;;;;5017022;28;20925;-77
2023/05/09 13:21:08;;;;;;;4.00;3.20;;;;;;;;;;5018167;28;20459;-79
2023/05/09 13:26:18;;;;;;;3.47;3.27;;;;;;;;;;5016048;28;20443;-77
2023/05/09 13:28:55;;;;;;;3.40;2.53;;;;;;;;;;5015974;28;20467;-79
2023/05/09 13:31:27;;;;;;;2.77;2.57;;;;;;;;;;5016669;28;20453;-78
2023/05/09 13:33:57;;;;;;;3.37;3.07;;;;;;;;;;5015819;28;20444;-80
2023/05/09 13:36:27;;;;;;;2.97;2.70;;;;;;;;;;5016307;28;20475;-79
2023/05/09 13:38:58;;;;;;;2.97;2.70;;;;;;;;;;5017253;28;20491;-77
2023/05/09 13:41:30;;;;;;;4.57;3.23;;;;;;;;;;5017231;28;20501;-79
2023/05/09 13:43:59;;;;;;;3.30;3.10;;;;;;;;;;5020156;28;20455;-77
2023/05/09 13:46:34;;;;;;;3.17;2.70;;;;;;;;;;5016954;28;20475;-77
2023/05/09 13:49:10;;;;;;;3.03;2.83;;;;;;;;;;5021559;28;20482;-79
2023/05/09 13:51:38;;;;;;;3.90;3.37;;;;;;;;;;5018361;28;20497;-79
2023/05/09 13:54:11;;;;;;;3.50;3.20;;;;;;;;;;5017068;28;20463;-78
2023/05/09 13:56:44;;;;;;;2.70;2.50;;;;;;;;;;5018660;28;20476;-78
2023/05/09 13:59:14;;;;;;;2.90;2.47;;;;;;;;;;5018731;28;20475;-79
2023/05/09 14:01:45;;;;;;;3.10;2.90;;;;;;;;;;5020146;28;20515;-79
2023/05/09 14:04:18;;;;;;;3.17;2.90;;;;;;;;;;5017944;28;20474;-77
2023/05/09 14:06:49;;;;;;;3.43;3.23;;;;;;;;;;5019025;28;20440;-77
2023/05/09 14:09:22;;;;;;;3.20;3.00;;;;;;;;;;5021016;28;20518;-78
2023/05/09 14:11:54;;;;;;;3.40;2.87;;;;;;;;;;5022886;28;20451;-79
2023/05/09 14:14:24;;;;;;;4.60;4.30;;;;;;;;;;5023315;28;20524;-77
2023/05/09 14:16:58;;;;;;;3.20;2.90;;;;;;;;;;5020663;28;20479;-77
2023/05/09 14:19:31;;;;;;;3.17;2.97;;;;;;;;;;5022728;28;20471;-78
2023/05/09 14:22:00;;;;;;;4.00;3.70;;;;;;;;;;5023845;28;20455;-76
2023/05/09 14:24:32;;;;;;;3.20;2.90;;;;;;;;;;5023830;28;20772;-78
2023/05/09 14:27:00;;;;;;;2.93;2.73;;;;;;;;;;5025486;28;20463;-80
2023/05/09 14:29:35;;;;;;;4.27;2.97;;;;;;;;;;5025756;28;20531;-79
2023/05/09 14:32:11;;;;;;;5.10;4.70;;;;;;;;;;5026700;28;20450;-79
2023/05/09 14:34:43;;;;;;;3.30;3.00;;;;;;;;;;5027219;28;20980;-80
2023/05/09 14:37:16;;;;;;;3.83;2.83;;;;;;;;;;5026972;28;20533;-77
2023/05/09 14:39:51;;;;;;;2.97;2.77;;;;;;;;;;5028253;28;20482;-78
2023/05/09 14:42:23;;;;;;;5.80;2.67;;;;;;;;;;5027834;28;20450;-81
2023/05/09 14:44:55;;;;;;;2.70;2.50;;;;;;;;;;5028458;28;20455;-79
2023/05/09 14:47:34;;;;;;;2.00;1.90;;;;;;;;;;5025556;28;20451;-79
2023/05/09 14:50:09;;;;;;;1.87;1.77;;;;;;;;;;5025166;28;20520;-78
2023/05/09 14:52:48;;;;;;;1.97;1.87;;;;;;;;;;5022867;28;20461;-78
2023/05/09 14:55:19;;;;;;;1.60;1.50;;;;;;;;;;5022846;28;20451;-75
2023/05/09 14:57:51;;;;;;;1.70;1.60;;;;;;;;;;5021740;28;20482;-76
2023/05/09 15:00:31;;;;;;;1.70;1.60;;;;;;;;;;5019394;28;20973;-78
2023/05/09 15:03:06;;;;;;;1.90;1.80;;;;;;;;;;5021319;28;20459;-80
2023/05/09 15:05:37;;;;;;;1.80;1.67;;;;;;;;;;5021977;28;20549;-77
2023/05/09 15:08:09;;;;;;;1.70;1.60;;;;;;;;;;5021611;28;20458;-77
2023/05/09 15:10:55;;;;;;;;;;;;;;;;;;;;;
2023/05/09 15:13:24;;;;;;;1.80;1.70;;;;;;;;;;5017046;28;20853;-76
2023/05/09 15:15:52;;;;;;;1.80;1.70;;;;;;;;;;5019104;28;20475;-77